Moreno, Brazil
Current Conditions -  °F | °C
As of 9:00 AM on Thursday 29 Jan 2015 (Local Time) from SBRF Reporting Station
Rain Showers Rain Showers  
Wind Chill: 81°   Ceiling: Unl
Heat Index: 86°   Visibility: 6mi
Dew Point: 75°   Wind: 7mph
Humidity: 84%   Direction: 90°E
Pressure: NA   Gusts: NA
Location:  8.12°S, 35.09°W
Report Text: SBRF 291200Z 09006KT 9999 VCSH SCT015 FEW020TCU SCT060 27/24 Q1013
Loading
Personal Weather Stations






























Interactive Weather Map New forecast layout! Learn more

10-Day Weather Forecast

Advertisements
Track Severe Weather on mobile